Poston, Arizona
Current Conditions -  °F | °C
As of 2:52 AM on Monday 26 Jan 2015 (Local Time) from KBLH Reporting Station
Clear Clear  
Wind Chill: 52°   Ceiling: Unl
Heat Index: 52°   Visibility: 10mi
Dew Point: 30°   Wind: 5mph
Humidity: 43%   Direction: 320°NW
Pressure: 30.06"   Gusts: NA
Location:  33.96°N, 114.42°W
Report Text: KBLH 260952Z AUTO 32004KT 10SM CLR 11/M01 A3006 RMK AO2 SLP177 T01111011
Loading
Personal Weather Stations






























Interactive Weather Map New forecast layout! Learn more

10-Day Weather Forecast

Advertisements
Track Severe Weather on mobile